Time;durP1;ratioP1;P1;durP2;ratioP2;P2;SDS_P1;SDS_P2;PMS_P1;PMS_P2;Temp;Humidity;BMP_temperature;BMP_pressure;BME280_temperature;BME280_humidity;BME280_pressure;Samples;Min_cycle;Max_cycle;Signal;HPM_P1;HPM_P2
2022/03/21 00:00:23;;;;;;;51.50;36.58;;;;;;;10.39;57.37;102143.28;5072302;28;20044;-55
2022/03/21 00:02:50;;;;;;;53.35;36.83;;;;;;;10.21;57.84;102141.91;5073488;28;20044;-56
2022/03/21 00:05:17;;;;;;;58.60;37.60;;;;;;;10.14;58.33;102144.97;5075218;28;20052;-52
2022/03/21 00:07:45;;;;;;;52.13;35.38;;;;;;;10.07;58.47;102133.38;5075211;28;20068;-57
2022/03/21 00:10:12;;;;;;;54.58;37.28;;;;;;;10.28;58.23;102139.72;5073955;28;20519;-54
2022/03/21 00:12:40;;;;;;;55.78;36.63;;;;;;;10.29;58.32;102137.78;5063054;28;20052;-56
2022/03/21 00:15:11;;;;;;;60.67;36.72;;;;;;;10.05;59.10;102140.22;5067845;28;20059;-55
2022/03/21 00:17:40;;;;;;;61.45;38.33;;;;;;;9.93;59.57;102137.75;5068718;28;20068;-55
2022/03/21 00:20:12;;;;;;;57.38;36.97;;;;;;;10.13;58.90;102148.78;5079695;28;20056;-57
2022/03/21 00:22:39;;;;;;;54.55;37.22;;;;;;;10.15;59.05;102143.00;5077041;28;20063;-57
2022/03/21 00:25:08;;;;;;;53.90;38.08;;;;;;;10.08;59.28;102142.41;5061682;28;20053;-58
2022/03/21 00:27:36;;;;;;;54.30;37.40;;;;;;;9.96;59.76;102137.19;5072841;28;20053;-55
2022/03/21 00:30:09;;;;;;;52.55;35.50;;;;;;;10.08;59.46;102142.41;5064655;28;20040;-56
2022/03/21 00:32:38;;;;;;;56.35;38.30;;;;;;;10.10;59.40;102137.50;5073512;28;20052;-55
2022/03/21 00:35:12;;;;;;;56.50;37.35;;;;;;;10.06;59.79;102139.94;5056179;28;20044;-52
2022/03/21 00:37:39;;;;;;;52.65;37.22;;;;;;;10.02;59.58;102133.34;5068059;28;20068;-52
2022/03/21 00:40:07;;;;;;;56.70;37.65;;;;;;;10.17;59.29;102143.56;5073998;28;20142;-54
2022/03/21 00:42:37;;;;;;;54.30;36.35;;;;;;;10.24;59.02;102138.59;5068489;28;20071;-56
2022/03/21 00:45:09;;;;;;;60.50;37.78;;;;;;;10.33;58.82;102145.22;5063300;28;20061;-55
2022/03/21 00:47:36;;;;;;;53.15;35.95;;;;;;;10.23;59.02;102144.38;5060664;28;20067;-53
2022/03/21 00:50:06;;;;;;;59.83;38.10;;;;;;;9.97;59.80;102151.81;5073640;28;20059;-56
2022/03/21 00:52:45;;;;;;;55.90;36.55;;;;;;;10.15;59.39;102146.59;5073146;28;20052;-53
2022/03/21 00:55:13;;;;;;;57.65;37.80;;;;;;;10.03;59.90;102145.19;5073532;28;20052;-53
2022/03/21 00:57:42;;;;;;;56.13;37.47;;;;;;;10.11;59.42;102144.69;5067221;28;20492;-53
2022/03/21 01:00:12;;;;;;;55.40;36.10;;;;;;;10.03;59.82;102145.19;5067007;28;20392;-54
2022/03/21 01:02:40;;;;;;;52.38;35.75;;;;;;;9.89;60.33;102144.06;5067637;28;20408;-53
2022/03/21 01:05:09;;;;;;;53.47;36.03;;;;;;;9.78;60.72;102139.69;5069389;28;20376;-52
2022/03/21 01:07:37;;;;;;;56.97;37.45;;;;;;;10.02;60.32;102138.84;5067322;28;20061;-54
2022/03/21 01:10:06;;;;;;;54.33;36.85;;;;;;;9.88;60.22;102142.44;5065648;28;20052;-56
2022/03/21 01:12:33;;;;;;;54.72;37.75;;;;;;;9.86;60.42;102142.72;5074449;28;20048;-56
2022/03/21 01:15:01;;;;;;;56.20;37.33;;;;;;;9.77;61.05;102138.84;5074703;28;20051;-53
2022/03/21 01:17:28;;;;;;;55.67;37.22;;;;;;;9.79;60.73;102142.16;5078550;28;20059;-57
2022/03/21 01:19:55;;;;;;;54.78;35.00;;;;;;;9.79;60.48;102141.31;5071576;28;20041;-51
2022/03/21 01:22:23;;;;;;;54.08;37.15;;;;;;;9.85;60.56;102140.22;5073161;28;20048;-57
2022/03/21 01:24:50;;;;;;;58.30;37.35;;;;;;;9.80;60.83;102140.19;5078638;28;20059;-54
2022/03/21 01:27:18;;;;;;;56.53;36.17;;;;;;;9.71;61.03;102136.38;5076617;28;20055;-55
2022/03/21 01:29:45;;;;;;;53.78;36.83;;;;;;;9.77;61.14;102138.00;5078157;28;20503;-54
2022/03/21 01:32:12;;;;;;;57.28;37.30;;;;;;;9.98;60.21;102142.44;5072169;28;20037;-51
2022/03/21 01:34:39;;;;;;;55.70;36.50;;;;;;;9.94;60.63;102136.66;5074232;28;20420;-56
2022/03/21 01:37:07;;;;;;;55.40;37.47;;;;;;;9.85;60.89;102146.53;5071554;28;20056;-54
2022/03/21 01:39:34;;;;;;;59.35;37.03;;;;;;;9.91;60.50;102141.88;5059284;28;20056;-54
2022/03/21 01:42:01;;;;;;;55.88;36.47;;;;;;;9.81;61.16;102147.38;5076482;28;20061;-52
2022/03/21 01:44:29;;;;;;;55.75;36.33;;;;;;;9.73;61.30;102139.66;5073796;28;20064;-56
2022/03/21 01:46:56;;;;;;;53.03;36.78;;;;;;;9.64;61.57;102141.31;5078447;28;20048;-56
2022/03/21 01:49:25;;;;;;;61.15;38.28;;;;;;;9.81;61.42;102141.88;5073046;28;20119;-54
2022/03/21 01:51:53;;;;;;;54.33;35.67;;;;;;;9.98;60.64;102143.25;5068700;28;20396;-58
2022/03/21 01:57:07;;;;;;;53.22;35.85;;;;;;;9.64;61.66;102139.34;5076665;28;20052;-54
2022/03/21 01:59:36;;;;;;;55.15;36.53;;;;;;;9.65;61.65;102143.78;5077577;28;20384;-52
2022/03/21 02:02:06;;;;;;;57.85;36.28;;;;;;;9.68;61.65;102151.47;5077530;28;20049;-55
2022/03/21 02:04:34;;;;;;;54.50;35.00;;;;;;;9.69;61.60;102141.31;5070899;28;20037;-56
2022/03/21 02:07:01;;;;;;;54.40;36.10;;;;;;;9.86;60.81;102150.97;5072627;28;20614;-54
2022/03/21 02:09:29;;;;;;;59.05;36.75;;;;;;;9.81;61.11;102145.47;5076325;28;20053;-53
2022/03/21 02:11:57;;;;;;;52.30;36.08;;;;;;;9.84;61.14;102146.81;5058908;28;20072;-57
2022/03/21 02:14:24;;;;;;;55.08;36.38;;;;;;;9.70;61.36;102135.53;5077473;28;20482;-55
2022/03/21 02:16:52;;;;;;;53.63;36.72;;;;;;;9.70;61.62;102145.69;5059843;28;20040;-57
2022/03/21 02:19:29;;;;;;;52.95;35.78;;;;;;;9.88;61.13;102139.69;5075676;28;20056;-55
2022/03/21 02:21:59;;;;;;;56.08;36.42;;;;;;;9.81;60.97;102139.13;5077374;28;20048;-55
2022/03/21 02:24:36;;;;;;;58.42;36.90;;;;;;;9.71;61.61;102134.41;5077616;28;20040;-53
2022/03/21 02:27:05;;;;;;;52.83;35.10;;;;;;;9.68;62.00;102136.88;5066186;28;20063;-54
2022/03/21 02:29:32;;;;;;;51.90;35.63;;;;;;;9.77;61.63;102133.34;5072700;28;20048;-55
2022/03/21 02:31:59;;;;;;;53.72;36.60;;;;;;;9.66;61.75;102134.41;5076915;28;20048;-53
2022/03/21 02:34:27;;;;;;;56.50;38.25;;;;;;;9.67;61.87;102132.50;5075651;28;20420;-55
2022/03/21 02:36:56;;;;;;;55.92;38.80;;;;;;;9.77;61.51;102132.50;5068711;28;20048;-56
2022/03/21 02:39:23;;;;;;;53.40;37.08;;;;;;;9.80;61.73;102129.19;5077130;28;20053;-55
2022/03/21 02:41:50;;;;;;;55.40;37.45;;;;;;;9.84;61.58;102130.31;5076915;28;20044;-57
2022/03/21 02:44:18;;;;;;;64.00;38.45;;;;;;;9.69;61.98;102127.56;5074833;28;20048;-54
2022/03/21 02:46:46;;;;;;;55.72;36.55;;;;;;;9.70;62.24;102129.19;5075229;28;20048;-57
2022/03/21 02:49:14;;;;;;;51.72;35.45;;;;;;;9.86;61.81;102122.59;5077233;28;20369;-58
2022/03/21 02:51:43;;;;;;;55.50;35.80;;;;;;;9.79;62.01;102124.81;5071812;28;20044;-57
2022/03/21 02:54:11;;;;;;;51.13;35.25;;;;;;;9.83;62.16;102128.66;5077148;28;20531;-58
2022/03/21 02:56:38;;;;;;;53.30;36.15;;;;;;;9.78;62.15;102114.91;5076366;28;20044;-54
2022/03/21 02:59:05;;;;;;;53.58;36.83;;;;;;;9.83;61.93;102123.97;5076928;28;20053;-56
2022/03/21 03:01:33;;;;;;;53.70;36.03;;;;;;;9.81;62.04;102117.09;5061697;28;20048;-57
2022/03/21 03:04:00;;;;;;;56.55;36.60;;;;;;;9.91;61.61;102119.84;5071453;28;20557;-56
2022/03/21 03:06:27;;;;;;;52.85;35.13;;;;;;;9.79;62.04;102116.56;5076881;28;20058;-57
2022/03/21 03:08:56;;;;;;;58.70;37.60;;;;;;;9.89;61.85;102117.38;5076766;28;20506;-58
2022/03/21 03:11:23;;;;;;;55.78;35.58;;;;;;;9.81;61.85;102133.63;5072805;28;20045;-55
2022/03/21 03:13:50;;;;;;;55.00;36.78;;;;;;;9.87;62.29;102138.00;5075091;28;20055;-55
2022/03/21 03:16:18;;;;;;;55.75;37.13;;;;;;;9.93;61.67;102117.66;5055321;28;20049;-58
2022/03/21 03:18:45;;;;;;;52.75;36.08;;;;;;;9.78;62.48;102129.47;5072913;28;20049;-58
2022/03/21 03:21:15;;;;;;;54.75;36.83;;;;;;;9.91;61.97;102120.69;5056607;28;20048;-55
2022/03/21 03:23:42;;;;;;;55.17;37.80;;;;;;;10.14;61.27;102130.34;5075255;28;20052;-56
2022/03/21 03:26:09;;;;;;;53.45;35.95;;;;;;;9.94;61.55;102130.31;5076109;28;20522;-57
2022/03/21 03:28:38;;;;;;;54.97;36.97;;;;;;;10.15;61.45;102130.06;5076518;28;20053;-54
2022/03/21 03:31:16;;;;;;;54.15;36.72;;;;;;;9.94;61.99;102133.91;5080849;28;20048;-55
2022/03/21 03:33:45;;;;;;;59.30;37.47;;;;;;;9.80;62.47;102123.69;5078502;28;20053;-56
2022/03/21 03:36:15;;;;;;;55.53;37.00;;;;;;;9.85;62.65;102134.72;5072398;28;20052;-58
2022/03/21 03:38:43;;;;;;;55.25;38.13;;;;;;;9.82;62.37;102138.84;5075750;28;20064;-56
2022/03/21 03:41:11;;;;;;;54.92;37.10;;;;;;;10.16;62.20;102134.47;5071075;28;20386;-57
2022/03/21 03:43:38;;;;;;;53.78;37.42;;;;;;;10.07;61.78;102135.28;5071569;28;20082;-59
2022/03/21 03:46:05;;;;;;;58.80;36.20;;;;;;;9.85;62.51;102140.22;5074772;28;20523;-55
2022/03/21 03:48:33;;;;;;;55.05;37.28;;;;;;;9.86;62.58;102137.19;5073950;28;20419;-54
2022/03/21 03:51:01;;;;;;;55.80;36.83;;;;;;;9.77;63.15;102140.75;5073514;28;20467;-56
2022/03/21 03:53:29;;;;;;;54.67;36.50;;;;;;;9.66;63.40;102137.16;5087991;28;20052;-58
2022/03/21 03:55:56;;;;;;;51.72;36.38;;;;;;;9.76;63.35;102148.19;5060742;28;20052;-51
2022/03/21 03:58:23;;;;;;;56.83;36.40;;;;;;;9.94;62.74;102153.16;5038210;28;20407;-52
2022/03/21 04:00:51;;;;;;;58.35;36.75;;;;;;;9.93;62.62;102150.69;5075594;28;20052;-54
2022/03/21 04:06:07;;;;;;;53.72;35.58;;;;;;;9.85;62.90;102154.78;5075200;28;20048;-58
2022/03/21 04:08:34;;;;;;;59.40;36.00;;;;;;;10.00;62.14;102148.50;5075536;28;20052;-56
2022/03/21 04:11:01;;;;;;;51.45;35.88;;;;;;;10.01;62.55;102145.47;5072521;28;20052;-57
2022/03/21 04:13:29;;;;;;;54.40;35.20;;;;;;;10.16;62.14;102150.19;5074904;28;20428;-55
2022/03/21 04:15:57;;;;;;;54.83;36.30;;;;;;;10.02;62.31;102152.59;5067562;28;20503;-57
2022/03/21 04:18:25;;;;;;;57.20;36.13;;;;;;;10.04;62.44;102158.66;5074660;28;20135;-56
2022/03/21 04:21:13;;;;;;;59.47;36.05;;;;;;;10.07;62.53;102157.31;5071154;28;20048;-56
2022/03/21 04:23:41;;;;;;;64.68;35.88;;;;;;;9.80;63.18;102162.22;5063917;28;20048;-56
2022/03/21 04:26:09;;;;;;;56.30;36.25;;;;;;;10.14;62.66;102158.72;5074866;28;20052;-54
2022/03/21 04:28:36;;;;;;;55.85;36.20;;;;;;;10.30;62.02;102161.47;5061803;28;20056;-54
2022/03/21 04:31:03;;;;;;;56.38;36.60;;;;;;;10.34;61.81;102162.56;5069017;28;20051;-54
2022/03/21 04:33:31;;;;;;;55.00;37.00;;;;;;;10.15;62.58;102162.28;5073852;28;20056;-55
2022/03/21 04:35:58;;;;;;;55.30;35.80;;;;;;;10.24;62.09;102163.38;5080186;28;20398;-56
2022/03/21 04:38:26;;;;;;;54.60;36.72;;;;;;;10.08;62.57;102168.06;5075282;28;20648;-54
2022/03/21 04:40:53;;;;;;;55.05;35.78;;;;;;;9.89;63.56;102171.59;5069389;28;20055;-56
2022/03/21 04:43:21;;;;;;;58.38;36.78;;;;;;;10.25;62.71;102178.81;5070636;28;20396;-56
2022/03/21 04:45:49;;;;;;;59.38;38.45;;;;;;;10.10;62.96;102179.63;5069838;28;20407;-55
2022/03/21 04:48:16;;;;;;;56.45;37.13;;;;;;;10.01;63.61;102177.66;5072270;28;20048;-55
2022/03/21 04:50:44;;;;;;;52.83;37.17;;;;;;;10.03;63.50;102180.97;5069802;28;20045;-54
2022/03/21 04:53:11;;;;;;;52.75;36.08;;;;;;;9.97;63.56;102179.31;5070372;28;20385;-57
2022/03/21 04:55:40;;;;;;;58.33;36.75;;;;;;;10.06;63.60;102185.91;5069025;28;20056;-51
2022/03/21 04:58:08;;;;;;;57.15;37.17;;;;;;;10.26;63.08;102183.22;5064741;28;20380;-53
2022/03/21 05:00:37;;;;;;;53.35;36.75;;;;;;;10.14;63.57;102190.94;5068945;28;20056;-53
2022/03/21 05:03:07;;;;;;;58.22;37.75;;;;;;;10.23;63.24;102193.97;5062171;28;20044;-53
2022/03/21 05:05:43;;;;;;;52.85;36.88;;;;;;;10.30;62.80;102189.00;5074383;28;20064;-58
2022/03/21 05:08:10;;;;;;;58.78;37.38;;;;;;;10.24;63.21;102188.16;5073436;28;20417;-58
2022/03/21 05:10:37;;;;;;;59.30;36.85;;;;;;;10.20;63.27;102193.41;5073226;28;20408;-56
2022/03/21 05:13:06;;;;;;;56.00;37.00;;;;;;;10.22;63.70;102195.88;5073165;28;20044;-56
2022/03/21 05:15:35;;;;;;;60.88;37.03;;;;;;;10.47;62.79;102192.28;5074152;28;20077;-58
2022/03/21 05:18:04;;;;;;;53.38;36.33;;;;;;;10.31;63.36;102196.16;5066621;28;20057;-59
2022/03/21 05:20:32;;;;;;;53.97;36.25;;;;;;;10.41;62.97;102193.41;5070451;28;20063;-54
2022/03/21 05:31:17;;;;;;;55.13;36.50;;;;;;;10.11;64.24;102197.78;5073278;28;20048;-57
2022/03/21 05:36:33;;;;;;;51.65;34.67;;;;;;;10.23;63.67;102209.38;5069791;28;20056;-58
2022/03/21 05:39:01;;;;;;;55.88;35.65;;;;;;;10.15;63.76;102209.91;5074371;28;20048;-55
2022/03/21 05:41:28;;;;;;;52.75;35.47;;;;;;;10.15;64.22;102203.56;5076634;28;20052;-54
2022/03/21 05:43:56;;;;;;;56.15;37.83;;;;;;;10.23;64.00;102203.06;5077460;28;20052;-56
2022/03/21 05:46:23;;;;;;;54.67;37.05;;;;;;;10.18;64.24;102208.56;5074359;28;20067;-56
2022/03/21 05:48:50;;;;;;;51.83;36.45;;;;;;;10.32;63.64;102214.34;5066736;28;20041;-57
2022/03/21 05:51:32;;;;;;;54.60;37.22;;;;;;;10.36;63.61;102204.41;5072622;28;20056;-54
2022/03/21 05:54:02;;;;;;;55.28;36.08;;;;;;;10.44;63.40;102212.97;5073555;28;20044;-56
2022/03/21 05:56:29;;;;;;;53.42;35.50;;;;;;;10.44;63.45;102217.63;5074149;28;20063;-54
2022/03/21 06:00:19;;;;;;;57.92;34.75;;;;;;;10.49;63.18;102218.47;5073512;28;20053;-56
2022/03/21 06:01:45;;;;;;;49.42;35.40;;;;;;;10.35;63.75;102222.88;5072173;28;20515;-56
2022/03/21 06:04:13;;;;;;;60.33;37.40;;;;;;;10.27;64.15;102223.41;5076139;28;20530;-55
2022/03/21 06:06:40;;;;;;;53.88;36.25;;;;;;;10.09;64.84;102222.00;5077882;28;20052;-57
2022/03/21 06:09:07;;;;;;;62.28;37.20;;;;;;;9.99;65.40;102221.97;5076995;28;20431;-55
2022/03/21 06:11:36;;;;;;;59.60;37.63;;;;;;;9.94;65.66;102230.22;5067984;28;20052;-57
2022/03/21 06:14:04;;;;;;;57.05;37.08;;;;;;;10.10;65.20;102229.19;5069777;28;20106;-57
2022/03/21 06:16:32;;;;;;;58.53;37.88;;;;;;;9.88;65.90;102241.50;5069095;28;20056;-54
2022/03/21 06:19:00;;;;;;;54.70;37.78;;;;;;;9.90;66.28;102239.31;5073072;28;20376;-57
2022/03/21 06:21:30;;;;;;;62.33;37.58;;;;;;;10.12;65.56;102245.44;5077272;28;20067;-55
2022/03/21 06:23:57;;;;;;;59.00;36.83;;;;;;;10.16;65.16;102241.03;5077192;28;20068;-53
2022/03/21 06:26:28;;;;;;;55.50;39.03;;;;;;;10.20;65.08;102251.22;5070150;28;20056;-57
2022/03/21 06:28:55;;;;;;;57.15;37.28;;;;;;;10.01;65.88;102247.31;5077269;28;20075;-55
2022/03/21 06:31:23;;;;;;;53.50;37.08;;;;;;;10.02;65.82;102262.72;5077043;28;20562;-56
2022/03/21 06:33:50;;;;;;;56.13;37.85;;;;;;;9.91;65.93;102262.97;5059250;28;20051;-56
2022/03/21 06:36:18;;;;;;;56.13;38.08;;;;;;;9.89;66.46;102259.66;5075932;28;20056;-57
2022/03/21 06:38:45;;;;;;;66.03;43.40;;;;;;;10.02;66.03;102268.22;5067207;28;20049;-57
2022/03/21 06:41:14;;;;;;;60.13;38.78;;;;;;;10.06;66.12;102268.50;5075028;28;20063;-59
2022/03/21 06:43:42;;;;;;;55.55;37.00;;;;;;;10.18;65.42;102272.69;5071562;28;20063;-58
2022/03/21 06:46:09;;;;;;;58.35;37.95;;;;;;;10.29;65.14;102279.03;5078565;28;20123;-56
2022/03/21 06:48:37;;;;;;;58.92;37.55;;;;;;;10.19;65.24;102276.28;5080375;28;20381;-55
2022/03/21 06:51:04;;;;;;;67.30;40.08;;;;;;;10.31;65.01;102287.88;5073814;28;20060;-55
2022/03/21 06:53:32;;;;;;;61.05;40.30;;;;;;;10.24;65.44;102281.78;5071837;28;20051;-55
2022/03/21 06:55:59;;;;;;;70.55;47.28;;;;;;;10.26;65.44;102287.84;5076466;28;20507;-56
2022/03/21 06:58:26;;;;;;;67.03;47.20;;;;;;;10.33;65.21;102288.44;5076772;28;20518;-55
2022/03/21 07:00:53;;;;;;;58.95;39.50;;;;;;;10.35;65.04;102300.00;5070308;28;20052;-56
2022/03/21 07:03:23;;;;;;;63.25;39.28;;;;;;;10.47;65.03;102305.22;5076591;28;20044;-53
2022/03/21 07:05:51;;;;;;;54.30;36.53;;;;;;;10.54;64.72;102298.38;5069014;28;20052;-54
2022/03/21 07:08:18;;;;;;;59.58;37.88;;;;;;;10.60;64.53;102291.72;5074882;28;20068;-55
2022/03/21 07:10:45;;;;;;;53.38;36.17;;;;;;;10.55;64.60;102299.19;5087493;28;20090;-54
2022/03/21 07:13:13;;;;;;;51.65;35.13;;;;;;;10.78;63.98;102295.88;5074947;28;20045;-58
2022/03/21 07:15:40;;;;;;;55.55;34.95;;;;;;;10.56;64.53;102298.09;5075792;28;20045;-57
2022/03/21 07:18:09;;;;;;;54.25;35.22;;;;;;;10.54;65.16;102300.28;5071083;28;20044;-57
2022/03/21 07:20:37;;;;;;;58.22;36.47;;;;;;;10.59;64.60;102297.53;5074538;28;20044;-58
2022/03/21 07:23:05;;;;;;;58.00;35.72;;;;;;;10.72;64.60;102302.50;5068503;28;20056;-56
2022/03/21 07:25:33;;;;;;;52.85;35.30;;;;;;;10.82;64.30;102302.50;5064857;28;20060;-56
2022/03/21 07:28:00;;;;;;;61.10;37.92;;;;;;;10.84;64.50;102303.88;5067614;28;20055;-56
2022/03/21 07:30:27;;;;;;;53.03;35.22;;;;;;;10.88;64.38;102302.19;5070478;28;20048;-55
2022/03/21 07:32:55;;;;;;;50.17;34.40;;;;;;;10.90;64.10;102300.00;5071254;28;20499;-56
2022/03/21 07:35:22;;;;;;;53.97;35.17;;;;;;;10.94;63.99;102298.34;5067002;28;20508;-57
2022/03/21 07:37:54;;;;;;;49.17;33.08;;;;;;;11.08;63.45;102304.94;5065706;28;20052;-58
2022/03/21 07:40:21;;;;;;;48.85;31.95;;;;;;;11.20;63.14;102301.88;5067483;28;20052;-57
2022/03/21 07:42:49;;;;;;;47.58;32.08;;;;;;;11.43;62.90;102303.22;5057576;28;20389;-56
2022/03/21 07:48:04;;;;;;;48.67;30.83;;;;;;;11.58;62.31;102311.44;5073131;28;20061;-63
2022/03/21 07:50:32;;;;;;;39.08;28.90;;;;;;;11.54;62.38;102299.31;5056311;28;20040;-57
2022/03/21 07:53:00;;;;;;;46.10;28.45;;;;;;;11.60;61.95;102301.78;5074929;28;20037;-56
2022/03/21 07:55:31;;;;;;;46.25;28.65;;;;;;;11.99;61.32;102307.44;5074407;28;20055;-56
2022/03/21 07:57:59;;;;;;;42.95;27.95;;;;;;;12.32;61.99;102310.28;5080738;28;20435;-56
2022/03/21 08:00:28;;;;;;;40.55;25.92;;;;;;;12.65;60.07;102311.41;5070625;28;20048;-56
2022/03/21 08:02:58;;;;;;;41.75;27.00;;;;;;;12.34;59.18;102321.03;5073090;28;20040;-59
2022/03/21 08:05:30;;;;;;;43.80;26.80;;;;;;;12.60;59.16;102300.41;5069243;28;20044;-58
2022/03/21 08:07:57;;;;;;;39.38;25.48;;;;;;;12.99;57.71;102308.63;5066505;28;20045;-54
2022/03/21 08:10:24;;;;;;;39.13;25.90;;;;;;;13.01;57.06;102306.38;5051211;28;20053;-57
2022/03/21 08:12:52;;;;;;;46.25;26.25;;;;;;;12.87;56.98;102311.78;5067895;28;20048;-57
2022/03/21 08:15:20;;;;;;;35.25;24.88;;;;;;;13.05;56.92;102308.31;5070972;28;20041;-56
2022/03/21 08:17:51;;;;;;;41.33;26.45;;;;;;;13.04;56.27;102306.66;5074214;28;20057;-59
2022/03/21 08:20:23;;;;;;;33.75;25.08;;;;;;;13.42;56.02;102314.00;5075354;28;20048;-61
2022/03/21 08:22:52;;;;;;;43.08;27.10;;;;;;;13.30;55.30;102310.00;5057757;28;20049;-58
2022/03/21 08:25:22;;;;;;;43.35;25.83;;;;;;;13.09;55.60;102314.91;5071030;28;20059;-57
2022/03/21 08:27:50;;;;;;;46.72;26.92;;;;;;;12.94;56.06;102315.03;5074362;28;20059;-52
2022/03/21 08:30:18;;;;;;;43.63;27.52;;;;;;;12.62;57.30;102309.22;5070997;28;20048;-58
2022/03/21 08:32:46;;;;;;;39.67;26.27;;;;;;;12.84;56.90;102312.34;5074809;28;20060;-57
2022/03/21 08:35:14;;;;;;;38.83;26.23;;;;;;;12.79;57.33;102315.16;5072122;28;20061;-55
2022/03/21 08:37:41;;;;;;;41.30;25.48;;;;;;;12.89;56.56;102315.06;5074366;28;20048;-57
2022/03/21 08:40:10;;;;;;;42.83;25.92;;;;;;;13.05;56.25;102324.09;5074978;28;20049;-56
2022/03/21 08:42:39;;;;;;;40.70;24.67;;;;;;;12.90;56.24;102319.47;5066937;28;20052;-56
2022/03/21 08:45:07;;;;;;;41.03;26.15;;;;;;;13.03;55.71;102315.25;5064678;28;20053;-56
2022/03/21 08:47:35;;;;;;;39.80;24.63;;;;;;;12.74;56.14;102322.66;5063458;28;20535;-53
2022/03/21 08:50:03;;;;;;;37.72;23.88;;;;;;;12.56;57.30;102315.06;5062667;28;20060;-58
2022/03/21 08:52:30;;;;;;;38.78;24.40;;;;;;;12.70;56.63;102319.66;5068525;28;20044;-55
2022/03/21 08:54:58;;;;;;;47.55;24.92;;;;;;;12.97;56.26;102316.41;5072394;28;20041;-59
2022/03/21 08:57:25;;;;;;;40.20;25.92;;;;;;;12.91;56.16;102318.38;5083185;28;20051;-59
2022/03/21 08:59:53;;;;;;;41.13;24.90;;;;;;;12.95;56.50;102324.16;5072047;28;20299;-49
2022/03/21 09:02:20;;;;;;;43.75;29.77;;;;;;;13.28;56.03;102321.38;5063160;28;20056;-53
2022/03/21 09:04:48;;;;;;;41.17;27.52;;;;;;;13.75;54.70;102312.25;5074621;28;20041;-55
2022/03/21 09:07:16;;;;;;;38.15;23.38;;;;;;;13.65;54.05;102312.34;5064374;28;20051;-56
2022/03/21 09:09:43;;;;;;;39.17;23.48;;;;;;;13.70;54.28;102311.47;5085839;28;20659;-54
2022/03/21 09:12:11;;;;;;;32.22;23.23;;;;;;;13.92;53.36;102309.81;5074802;28;20044;-55
2022/03/21 09:14:38;;;;;;;32.40;20.30;;;;;;;13.63;53.42;102309.09;5073070;28;20052;-56
2022/03/21 09:17:06;;;;;;;33.47;20.83;;;;;;;13.54;53.79;102306.13;5063475;28;20045;-58
2022/03/21 09:19:33;;;;;;;30.20;19.67;;;;;;;13.42;54.31;102300.16;5067518;28;20048;-58
2022/03/21 09:22:02;;;;;;;37.97;19.30;;;;;;;13.55;54.08;102312.47;5073305;28;20049;-53
2022/03/21 09:24:30;;;;;;;31.45;16.55;;;;;;;13.70;53.30;102314.25;5069941;28;20053;-51
2022/03/21 09:26:57;;;;;;;25.42;16.85;;;;;;;13.66;53.05;102311.25;5073690;28;20051;-54
2022/03/21 09:29:25;;;;;;;28.98;16.52;;;;;;;13.71;52.74;102305.66;5071807;28;20499;-53
2022/03/21 09:31:52;;;;;;;25.48;15.95;;;;;;;14.12;52.27;102306.75;5067924;28;20071;-55
2022/03/21 09:34:20;;;;;;;24.75;16.70;;;;;;;14.41;51.63;102301.94;5068611;28;20392;-57
2022/03/21 09:36:48;;;;;;;26.88;16.77;;;;;;;14.31;51.79;102307.59;5067881;28;20075;-54
2022/03/21 09:39:17;;;;;;;31.75;16.50;;;;;;;14.24;51.76;102306.31;5076193;28;20060;-54
2022/03/21 09:41:45;;;;;;;24.33;16.60;;;;;;;14.47;51.30;102308.22;5077791;28;20059;-56
2022/03/21 09:44:12;;;;;;;32.05;17.77;;;;;;;14.57;50.81;102299.75;5071183;28;20056;-53
2022/03/21 09:46:42;;;;;;;27.63;17.35;;;;;;;14.85;50.54;102303.44;5072947;28;20059;-55
2022/03/21 09:49:11;;;;;;;24.75;16.00;;;;;;;14.44;50.44;102300.50;5077494;28;20055;-53
2022/03/21 09:51:39;;;;;;;31.92;15.35;;;;;;;14.26;51.61;102298.56;5036651;28;20064;-51
2022/03/21 09:54:07;;;;;;;24.95;14.80;;;;;;;14.51;51.25;102299.00;5065332;28;20057;-54
2022/03/21 09:56:36;;;;;;;25.73;15.40;;;;;;;14.68;50.33;102292.88;5069455;28;20048;-58
2022/03/21 09:59:03;;;;;;;20.50;15.27;;;;;;;14.64;50.36;102291.88;5062176;28;20083;-55
2022/03/21 10:01:33;;;;;;;27.27;15.50;;;;;;;14.90;50.15;102281.16;5070014;28;20365;-55
2022/03/21 10:04:01;;;;;;;22.85;14.70;;;;;;;14.69;50.29;102289.00;5072986;28;20048;-54
2022/03/21 10:06:34;;;;;;;24.73;14.95;;;;;;;14.66;50.67;102284.06;5062989;28;20061;-55
2022/03/21 10:09:17;;;;;;;19.65;14.00;;;;;;;14.66;50.65;102279.31;5065322;28;20056;-57
2022/03/21 10:11:49;;;;;;;21.30;12.73;;;;;;;14.89;50.02;102280.31;5069679;28;20111;-53
2022/03/21 10:14:27;;;;;;;18.27;12.57;;;;;;;14.99;49.57;102285.72;5066494;28;20044;-55
2022/03/21 10:16:59;;;;;;;18.67;13.13;;;;;;;14.81;49.83;102280.19;5073576;28;20052;-54
2022/03/21 10:19:27;;;;;;;20.30;12.82;;;;;;;14.87;49.72;102281.78;5062057;28;20041;-52
2022/03/21 10:22:04;;;;;;;25.63;13.55;;;;;;;15.21;49.54;102283.06;5065870;28;20044;-56
2022/03/21 10:24:46;;;;;;;21.23;13.10;;;;;;;15.15;49.16;102284.28;5061984;28;20044;-57
2022/03/21 10:27:39;;;;;;;27.90;17.35;;;;;;;15.13;49.45;102280.97;5069606;28;20056;-54
2022/03/21 10:30:23;;;;;;;25.13;11.18;;;;;;;15.01;49.08;102285.41;5063713;28;20056;-55
2022/03/21 10:32:55;;;;;;;20.95;12.32;;;;;;;14.58;49.76;102268.09;5073206;28;20070;-58
2022/03/21 10:35:29;;;;;;;19.90;12.32;;;;;;;14.55;49.83;102263.16;5065054;28;20049;-55
2022/03/21 10:38:02;;;;;;;25.30;13.95;;;;;;;14.77;49.36;102271.66;5071255;28;20048;-54
2022/03/21 10:40:33;;;;;;;20.60;12.82;;;;;;;14.97;49.26;102274.09;5070799;28;20520;-54
2022/03/21 10:43:07;;;;;;;16.02;10.57;;;;;;;15.42;48.10;102262.13;5072580;28;20055;-55
2022/03/21 10:45:35;;;;;;;17.67;9.90;;;;;;;15.64;47.58;102266.94;5071086;28;20056;-59
2022/03/21 10:48:08;;;;;;;15.98;8.98;;;;;;;15.50;47.18;102266.97;5064855;28;20064;-55
2022/03/21 10:50:41;;;;;;;20.23;13.65;;;;;;;15.53;47.05;102260.78;5076385;28;20055;-55
2022/03/21 10:53:17;;;;;;;17.13;9.95;;;;;;;15.34;47.20;102257.25;5063104;28;20068;-57
2022/03/21 10:55:47;;;;;;;15.23;8.98;;;;;;;15.18;47.66;102255.09;5059838;28;20056;-56
2022/03/21 10:58:18;;;;;;;18.95;8.23;;;;;;;15.30;47.36;102258.19;5066147;28;20051;-57
2022/03/21 11:00:45;;;;;;;12.25;6.78;;;;;;;15.18;47.54;102255.09;5067548;28;20060;-56
2022/03/21 11:03:15;;;;;;;14.55;6.93;;;;;;;15.27;47.48;102261.59;5068052;28;20055;-58
2022/03/21 11:05:48;;;;;;;12.45;6.32;;;;;;;15.43;47.14;102257.41;5078353;28;20051;-55
2022/03/21 11:08:17;;;;;;;14.07;6.60;;;;;;;15.67;46.91;102249.69;5076851;28;20049;-58
2022/03/21 11:10:47;;;;;;;12.68;6.72;;;;;;;15.64;46.72;102239.16;5074870;28;20060;-58
2022/03/21 11:13:14;;;;;;;12.77;8.05;;;;;;;15.77;46.57;102241.13;5076294;28;20048;-54
2022/03/21 11:15:42;;;;;;;12.23;7.03;;;;;;;15.92;45.97;102240.78;5075936;28;20048;-60
2022/03/21 11:18:10;;;;;;;14.55;7.90;;;;;;;16.08;45.80;102244.84;5075989;28;20051;-54
2022/03/21 11:20:37;;;;;;;12.32;7.28;;;;;;;16.03;45.89;102235.81;5076704;28;20530;-55
2022/03/21 11:23:05;;;;;;;13.15;7.15;;;;;;;15.96;46.06;102235.41;5076378;28;20077;-58
2022/03/21 11:25:36;;;;;;;13.98;7.55;;;;;;;15.90;46.11;102233.91;5074795;28;20532;-55
2022/03/21 11:28:06;;;;;;;13.63;7.70;;;;;;;15.99;45.76;102235.63;5067040;28;20063;-55
2022/03/21 11:30:38;;;;;;;;;;;;;;;15.96;45.99;102233.47;5074797;28;20487;-58
2022/03/21 11:33:16;;;;;;;11.73;7.55;;;;;;;16.47;44.96;102221.97;5051857;28;20244;-55
2022/03/21 11:35:51;;;;;;;13.98;7.97;;;;;;;16.34;45.31;102218.09;5075344;28;20040;-59
2022/03/21 11:38:29;;;;;;;17.73;11.48;;;;;;;16.45;45.12;102224.22;5075951;28;20507;-56